Weather at RCAF Station Lincoln Park [CLOSED]

Public forecast

Using degrees Celsius for public forecast. Weather courtesy of forecast.io.

Closest aviation weather report (METAR) to RCAF Station Lincoln Park

Closest report is Calgary International Airport, 7.6 nm (14.0 km) NE. Retrieved 2020/09/23 05:00 UTC (36 minutes ago):

CYYC 230500Z 18006KT 15SM SKC 09/04 A2999 RMK SLP175 DENSITY ALT 3700FT

Closest aviation forecast (TAF) to RCAF Station Lincoln Park

Closest forecast is Calgary International Airport, 7.6 nm (14.0 km) NE. Retrieved 2020-09-23 03:41 UTC (2 hours ago):

TAF CYYC 230238Z 2303/2324 16008KT P6SM SCT120 BKN250 FM231000 28006KT P6SM SKC FM231800 20012KT P6SM FEW060 SCT180 RMK NXT FCST BY 230600Z